sensor_id;sensor_type;location;lat;lon;timestamp;temperature;humidity
51327;DHT22;37412;52.836;6.362;2023-09-12T00:01:03;19.80;99.90
51327;DHT22;37412;52.836;6.362;2023-09-12T00:03:50;19.80;99.90
51327;DHT22;37412;52.836;6.362;2023-09-12T00:06:36;19.80;99.90
51327;DHT22;37412;52.836;6.362;2023-09-12T00:09:22;19.90;99.90
51327;DHT22;37412;52.836;6.362;2023-09-12T00:12:08;19.90;99.90
51327;DHT22;37412;52.836;6.362;2023-09-12T00:14:54;19.90;99.90
51327;DHT22;37412;52.836;6.362;2023-09-12T00:17:40;19.90;99.90
51327;DHT22;37412;52.836;6.362;2023-09-12T00:20:26;19.70;99.90
51327;DHT22;37412;52.836;6.362;2023-09-12T00:23:12;19.70;99.90
51327;DHT22;37412;52.836;6.362;2023-09-12T00:25:58;19.50;99.90
51327;DHT22;37412;52.836;6.362;2023-09-12T00:28:44;19.60;99.90
51327;DHT22;37412;52.836;6.362;2023-09-12T00:31:29;19.60;99.90
51327;DHT22;37412;52.836;6.362;2023-09-12T00:34:16;19.60;99.90
51327;DHT22;37412;52.836;6.362;2023-09-12T00:37:03;19.60;99.90
51327;DHT22;37412;52.836;6.362;2023-09-12T00:39:49;19.50;99.90
51327;DHT22;37412;52.836;6.362;2023-09-12T00:42:34;19.50;99.90
51327;DHT22;37412;52.836;6.362;2023-09-12T00:45:21;19.50;99.90
51327;DHT22;37412;52.836;6.362;2023-09-12T00:48:07;19.50;99.90
51327;DHT22;37412;52.836;6.362;2023-09-12T00:50:54;19.60;99.90
51327;DHT22;37412;52.836;6.362;2023-09-12T00:53:41;19.60;99.90
51327;DHT22;37412;52.836;6.362;2023-09-12T00:56:27;19.60;99.90
51327;DHT22;37412;52.836;6.362;2023-09-12T00:59:14;19.60;99.90
51327;DHT22;37412;52.836;6.362;2023-09-12T01:02:01;19.70;99.90
51327;DHT22;37412;52.836;6.362;2023-09-12T01:04:48;19.60;99.90
51327;DHT22;37412;52.836;6.362;2023-09-12T01:07:38;19.60;99.90
51327;DHT22;37412;52.836;6.362;2023-09-12T01:10:24;19.60;99.90
51327;DHT22;37412;52.836;6.362;2023-09-12T01:13:10;19.60;99.90
51327;DHT22;37412;52.836;6.362;2023-09-12T01:15:56;19.50;99.90
51327;DHT22;37412;52.836;6.362;2023-09-12T01:18:42;19.50;99.90
51327;DHT22;37412;52.836;6.362;2023-09-12T01:24:52;19.50;99.90
51327;DHT22;37412;52.836;6.362;2023-09-12T01:27:50;19.50;99.90
51327;DHT22;37412;52.836;6.362;2023-09-12T01:30:39;19.40;99.90
51327;DHT22;37412;52.836;6.362;2023-09-12T01:33:27;19.50;99.90
51327;DHT22;37412;52.836;6.362;2023-09-12T01:36:13;19.50;99.90
51327;DHT22;37412;52.836;6.362;2023-09-12T01:38:59;19.50;99.90
51327;DHT22;37412;52.836;6.362;2023-09-12T01:41:47;19.50;99.90
51327;DHT22;37412;52.836;6.362;2023-09-12T01:44:35;19.50;99.90
51327;DHT22;37412;52.836;6.362;2023-09-12T01:47:23;19.50;99.90
51327;DHT22;37412;52.836;6.362;2023-09-12T01:50:12;19.50;99.90
51327;DHT22;37412;52.836;6.362;2023-09-12T01:52:59;19.40;99.90
51327;DHT22;37412;52.836;6.362;2023-09-12T01:55:45;19.40;99.90
51327;DHT22;37412;52.836;6.362;2023-09-12T01:58:32;19.50;99.90
51327;DHT22;37412;52.836;6.362;2023-09-12T02:01:20;19.40;99.90
51327;DHT22;37412;52.836;6.362;2023-09-12T02:04:05;19.40;99.90
51327;DHT22;37412;52.836;6.362;2023-09-12T02:06:54;19.30;99.90
51327;DHT22;37412;52.836;6.362;2023-09-12T02:09:40;19.40;99.90
51327;DHT22;37412;52.836;6.362;2023-09-12T02:12:26;19.30;99.90
51327;DHT22;37412;52.836;6.362;2023-09-12T02:15:12;19.30;99.90
51327;DHT22;37412;52.836;6.362;2023-09-12T02:17:58;19.30;99.90
51327;DHT22;37412;52.836;6.362;2023-09-12T02:20:44;19.20;99.90
51327;DHT22;37412;52.836;6.362;2023-09-12T02:23:31;19.10;99.90
51327;DHT22;37412;52.836;6.362;2023-09-12T02:26:17;19.20;99.90
51327;DHT22;37412;52.836;6.362;2023-09-12T02:29:03;19.20;99.90
51327;DHT22;37412;52.836;6.362;2023-09-12T02:31:53;19.10;99.90
51327;DHT22;37412;52.836;6.362;2023-09-12T02:34:39;19.10;99.90
51327;DHT22;37412;52.836;6.362;2023-09-12T02:37:24;19.10;99.90
51327;DHT22;37412;52.836;6.362;2023-09-12T02:40:11;19.00;99.90
51327;DHT22;37412;52.836;6.362;2023-09-12T02:42:57;19.00;99.90
51327;DHT22;37412;52.836;6.362;2023-09-12T02:45:43;19.00;99.90
51327;DHT22;37412;52.836;6.362;2023-09-12T02:48:29;19.00;99.90
51327;DHT22;37412;52.836;6.362;2023-09-12T02:51:15;18.90;99.90
51327;DHT22;37412;52.836;6.362;2023-09-12T02:54:01;18.90;99.90
51327;DHT22;37412;52.836;6.362;2023-09-12T02:56:47;19.80;99.90
51327;DHT22;37412;52.836;6.362;2023-09-12T02:59:33;18.90;99.90
51327;DHT22;37412;52.836;6.362;2023-09-12T03:02:19;18.80;99.90
51327;DHT22;37412;52.836;6.362;2023-09-12T03:05:05;18.80;99.90
51327;DHT22;37412;52.836;6.362;2023-09-12T03:07:51;18.80;99.90
51327;DHT22;37412;52.836;6.362;2023-09-12T03:10:37;18.80;99.90
51327;DHT22;37412;52.836;6.362;2023-09-12T03:13:26;18.80;99.90
51327;DHT22;37412;52.836;6.362;2023-09-12T03:16:13;18.80;99.90
51327;DHT22;37412;52.836;6.362;2023-09-12T03:18:59;18.80;99.90
51327;DHT22;37412;52.836;6.362;2023-09-12T03:21:47;18.80;99.90
51327;DHT22;37412;52.836;6.362;2023-09-12T03:24:32;18.80;99.90
51327;DHT22;37412;52.836;6.362;2023-09-12T03:27:18;18.80;99.90
51327;DHT22;37412;52.836;6.362;2023-09-12T03:30:05;18.80;99.90
51327;DHT22;37412;52.836;6.362;2023-09-12T03:32:51;18.80;99.90
51327;DHT22;37412;52.836;6.362;2023-09-12T03:35:37;18.80;99.90
51327;DHT22;37412;52.836;6.362;2023-09-12T03:38:23;18.80;99.90
51327;DHT22;37412;52.836;6.362;2023-09-12T03:41:09;18.80;99.90
51327;DHT22;37412;52.836;6.362;2023-09-12T03:43:56;18.80;99.90
51327;DHT22;37412;52.836;6.362;2023-09-12T03:46:42;18.80;99.90
51327;DHT22;37412;52.836;6.362;2023-09-12T03:49:28;18.80;99.90
51327;DHT22;37412;52.836;6.362;2023-09-12T03:52:14;18.70;99.90
51327;DHT22;37412;52.836;6.362;2023-09-12T03:55:00;18.70;99.90
51327;DHT22;37412;52.836;6.362;2023-09-12T03:57:46;18.70;99.90
51327;DHT22;37412;52.836;6.362;2023-09-12T04:00:32;18.60;99.90
51327;DHT22;37412;52.836;6.362;2023-09-12T04:03:18;18.60;99.90
51327;DHT22;37412;52.836;6.362;2023-09-12T04:06:06;19.00;99.90
51327;DHT22;37412;52.836;6.362;2023-09-12T04:08:52;18.70;99.90
51327;DHT22;37412;52.836;6.362;2023-09-12T04:11:38;18.70;99.90
51327;DHT22;37412;52.836;6.362;2023-09-12T04:14:24;19.00;99.90
51327;DHT22;37412;52.836;6.362;2023-09-12T04:17:09;18.60;99.90
51327;DHT22;37412;52.836;6.362;2023-09-12T04:19:55;18.60;99.90
51327;DHT22;37412;52.836;6.362;2023-09-12T04:22:42;18.60;99.90
51327;DHT22;37412;52.836;6.362;2023-09-12T04:25:29;18.50;99.90
51327;DHT22;37412;52.836;6.362;2023-09-12T04:28:15;18.50;99.90
51327;DHT22;37412;52.836;6.362;2023-09-12T04:31:04;18.50;99.90
51327;DHT22;37412;52.836;6.362;2023-09-12T04:33:54;18.50;99.90
51327;DHT22;37412;52.836;6.362;2023-09-12T04:36:40;18.50;99.90
51327;DHT22;37412;52.836;6.362;2023-09-12T04:39:25;18.50;99.90
51327;DHT22;37412;52.836;6.362;2023-09-12T04:42:11;18.50;99.90
51327;DHT22;37412;52.836;6.362;2023-09-12T04:44:57;18.40;99.90
51327;DHT22;37412;52.836;6.362;2023-09-12T04:47:43;18.40;99.90
51327;DHT22;37412;52.836;6.362;2023-09-12T04:50:29;18.40;99.90
51327;DHT22;37412;52.836;6.362;2023-09-12T04:53:15;18.40;99.90
51327;DHT22;37412;52.836;6.362;2023-09-12T04:56:02;18.30;99.90
51327;DHT22;37412;52.836;6.362;2023-09-12T04:58:48;18.30;99.90
51327;DHT22;37412;52.836;6.362;2023-09-12T05:01:34;18.50;99.90
51327;DHT22;37412;52.836;6.362;2023-09-12T05:04:19;18.20;99.90
51327;DHT22;37412;52.836;6.362;2023-09-12T05:07:05;18.20;99.90
51327;DHT22;37412;52.836;6.362;2023-09-12T05:09:51;18.20;99.90
51327;DHT22;37412;52.836;6.362;2023-09-12T05:12:37;18.20;99.90
51327;DHT22;37412;52.836;6.362;2023-09-12T05:15:26;18.20;99.90
51327;DHT22;37412;52.836;6.362;2023-09-12T05:18:12;18.10;99.90
51327;DHT22;37412;52.836;6.362;2023-09-12T05:20:58;18.20;99.90
51327;DHT22;37412;52.836;6.362;2023-09-12T05:23:44;18.20;99.90
51327;DHT22;37412;52.836;6.362;2023-09-12T05:26:30;18.10;99.90
51327;DHT22;37412;52.836;6.362;2023-09-12T05:29:15;18.20;99.90
51327;DHT22;37412;52.836;6.362;2023-09-12T05:32:01;18.20;99.90
51327;DHT22;37412;52.836;6.362;2023-09-12T05:34:47;18.20;99.90
51327;DHT22;37412;52.836;6.362;2023-09-12T05:37:35;18.30;99.90
51327;DHT22;37412;52.836;6.362;2023-09-12T05:40:21;18.30;99.90
51327;DHT22;37412;52.836;6.362;2023-09-12T05:43:07;18.30;99.90
51327;DHT22;37412;52.836;6.362;2023-09-12T05:45:53;18.30;99.90
51327;DHT22;37412;52.836;6.362;2023-09-12T05:48:39;18.30;99.90
51327;DHT22;37412;52.836;6.362;2023-09-12T05:51:25;18.20;99.90
51327;DHT22;37412;52.836;6.362;2023-09-12T05:54:11;18.30;99.90
51327;DHT22;37412;52.836;6.362;2023-09-12T05:56:59;18.30;99.90
51327;DHT22;37412;52.836;6.362;2023-09-12T05:59:45;18.30;99.90
51327;DHT22;37412;52.836;6.362;2023-09-12T06:02:31;18.40;99.90
51327;DHT22;37412;52.836;6.362;2023-09-12T06:05:19;18.40;99.90
51327;DHT22;37412;52.836;6.362;2023-09-12T06:08:05;18.40;99.90
51327;DHT22;37412;52.836;6.362;2023-09-12T06:10:51;18.40;99.90
51327;DHT22;37412;52.836;6.362;2023-09-12T06:13:39;18.40;99.90
51327;DHT22;37412;52.836;6.362;2023-09-12T06:16:25;18.40;99.90
51327;DHT22;37412;52.836;6.362;2023-09-12T06:19:11;18.30;99.90
51327;DHT22;37412;52.836;6.362;2023-09-12T06:21:57;18.30;99.90
51327;DHT22;37412;52.836;6.362;2023-09-12T06:24:44;18.30;99.90
51327;DHT22;37412;52.836;6.362;2023-09-12T06:27:30;18.30;99.90
51327;DHT22;37412;52.836;6.362;2023-09-12T06:30:17;18.30;99.90
51327;DHT22;37412;52.836;6.362;2023-09-12T06:33:03;18.30;99.90
51327;DHT22;37412;52.836;6.362;2023-09-12T06:35:50;18.30;99.90
51327;DHT22;37412;52.836;6.362;2023-09-12T06:38:36;18.30;99.90
51327;DHT22;37412;52.836;6.362;2023-09-12T06:41:22;18.30;99.90
51327;DHT22;37412;52.836;6.362;2023-09-12T06:44:07;18.30;99.90
51327;DHT22;37412;52.836;6.362;2023-09-12T06:46:53;18.30;99.90
51327;DHT22;37412;52.836;6.362;2023-09-12T06:49:39;18.40;99.90
51327;DHT22;37412;52.836;6.362;2023-09-12T06:52:25;18.50;99.90
51327;DHT22;37412;52.836;6.362;2023-09-12T06:55:11;18.60;99.90
51327;DHT22;37412;52.836;6.362;2023-09-12T06:57:57;18.80;99.90
51327;DHT22;37412;52.836;6.362;2023-09-12T07:00:43;18.70;99.90
51327;DHT22;37412;52.836;6.362;2023-09-12T07:03:30;18.80;99.90
51327;DHT22;37412;52.836;6.362;2023-09-12T07:06:16;18.80;99.90
51327;DHT22;37412;52.836;6.362;2023-09-12T07:09:02;18.90;99.90
51327;DHT22;37412;52.836;6.362;2023-09-12T07:11:49;18.90;99.90
51327;DHT22;37412;52.836;6.362;2023-09-12T07:14:35;18.90;99.90
51327;DHT22;37412;52.836;6.362;2023-09-12T07:17:23;19.00;99.90
51327;DHT22;37412;52.836;6.362;2023-09-12T07:20:09;19.10;99.90
51327;DHT22;37412;52.836;6.362;2023-09-12T07:22:57;19.10;99.90
51327;DHT22;37412;52.836;6.362;2023-09-12T07:25:43;19.20;99.90
51327;DHT22;37412;52.836;6.362;2023-09-12T07:28:30;19.10;99.90
51327;DHT22;37412;52.836;6.362;2023-09-12T07:31:16;19.20;99.90
51327;DHT22;37412;52.836;6.362;2023-09-12T07:34:03;19.20;99.90
51327;DHT22;37412;52.836;6.362;2023-09-12T07:36:49;19.30;99.90
51327;DHT22;37412;52.836;6.362;2023-09-12T07:39:36;19.60;99.90
51327;DHT22;37412;52.836;6.362;2023-09-12T07:42:23;19.40;99.90
51327;DHT22;37412;52.836;6.362;2023-09-12T07:45:09;19.40;99.90
51327;DHT22;37412;52.836;6.362;2023-09-12T07:47:55;19.50;99.90
51327;DHT22;37412;52.836;6.362;2023-09-12T07:50:41;19.50;99.90
51327;DHT22;37412;52.836;6.362;2023-09-12T07:53:28;19.50;99.90
51327;DHT22;37412;52.836;6.362;2023-09-12T07:56:14;19.60;99.90
51327;DHT22;37412;52.836;6.362;2023-09-12T07:59:00;19.60;99.90
51327;DHT22;37412;52.836;6.362;2023-09-12T08:01:45;19.70;99.90
51327;DHT22;37412;52.836;6.362;2023-09-12T08:04:32;19.70;99.90
51327;DHT22;37412;52.836;6.362;2023-09-12T08:07:17;19.70;99.90
51327;DHT22;37412;52.836;6.362;2023-09-12T08:10:04;19.90;99.90
51327;DHT22;37412;52.836;6.362;2023-09-12T08:12:50;19.80;99.90
51327;DHT22;37412;52.836;6.362;2023-09-12T08:15:36;19.90;99.90
51327;DHT22;37412;52.836;6.362;2023-09-12T08:18:26;19.90;99.90
51327;DHT22;37412;52.836;6.362;2023-09-12T08:21:13;20.20;99.90
51327;DHT22;37412;52.836;6.362;2023-09-12T08:23:59;20.60;99.90
51327;DHT22;37412;52.836;6.362;2023-09-12T08:26:44;20.40;99.90
51327;DHT22;37412;52.836;6.362;2023-09-12T08:29:31;20.40;99.90
51327;DHT22;37412;52.836;6.362;2023-09-12T08:32:17;20.40;99.90
51327;DHT22;37412;52.836;6.362;2023-09-12T08:35:03;20.40;99.90
51327;DHT22;37412;52.836;6.362;2023-09-12T08:37:49;20.50;99.90
51327;DHT22;37412;52.836;6.362;2023-09-12T08:40:35;20.70;99.90
51327;DHT22;37412;52.836;6.362;2023-09-12T08:43:21;20.80;99.90
51327;DHT22;37412;52.836;6.362;2023-09-12T08:46:08;21.00;99.90
51327;DHT22;37412;52.836;6.362;2023-09-12T08:48:55;21.00;99.90
51327;DHT22;37412;52.836;6.362;2023-09-12T08:51:41;21.00;99.90
51327;DHT22;37412;52.836;6.362;2023-09-12T08:54:28;21.20;99.90
51327;DHT22;37412;52.836;6.362;2023-09-12T08:57:14;22.10;99.90
51327;DHT22;37412;52.836;6.362;2023-09-12T09:00:01;22.90;99.90
51327;DHT22;37412;52.836;6.362;2023-09-12T09:02:54;23.60;99.90
51327;DHT22;37412;52.836;6.362;2023-09-12T09:05:42;23.60;99.90
51327;DHT22;37412;52.836;6.362;2023-09-12T09:08:29;23.20;99.90
51327;DHT22;37412;52.836;6.362;2023-09-12T09:11:16;22.70;99.90
51327;DHT22;37412;52.836;6.362;2023-09-12T09:14:02;22.50;99.90
51327;DHT22;37412;52.836;6.362;2023-09-12T09:16:49;22.20;99.90
51327;DHT22;37412;52.836;6.362;2023-09-12T09:19:43;22.00;99.90
51327;DHT22;37412;52.836;6.362;2023-09-12T09:22:30;21.80;99.90
51327;DHT22;37412;52.836;6.362;2023-09-12T09:25:16;21.80;99.90
51327;DHT22;37412;52.836;6.362;2023-09-12T09:28:03;21.70;99.90
51327;DHT22;37412;52.836;6.362;2023-09-12T09:30:51;21.90;99.90
51327;DHT22;37412;52.836;6.362;2023-09-12T09:33:40;22.00;99.90
51327;DHT22;37412;52.836;6.362;2023-09-12T09:36:27;22.20;99.90
51327;DHT22;37412;52.836;6.362;2023-09-12T09:39:13;22.30;99.90
51327;DHT22;37412;52.836;6.362;2023-09-12T09:41:59;22.20;99.90
51327;DHT22;37412;52.836;6.362;2023-09-12T09:44:45;22.10;99.90
51327;DHT22;37412;52.836;6.362;2023-09-12T09:47:32;21.90;99.90
51327;DHT22;37412;52.836;6.362;2023-09-12T09:50:18;21.80;99.90
51327;DHT22;37412;52.836;6.362;2023-09-12T09:53:04;21.80;99.90
51327;DHT22;37412;52.836;6.362;2023-09-12T09:56:13;21.80;99.90
51327;DHT22;37412;52.836;6.362;2023-09-12T09:58:59;22.00;99.90
51327;DHT22;37412;52.836;6.362;2023-09-12T10:01:46;22.10;99.90
51327;DHT22;37412;52.836;6.362;2023-09-12T10:04:32;22.20;99.90
51327;DHT22;37412;52.836;6.362;2023-09-12T10:07:20;22.30;99.90
51327;DHT22;37412;52.836;6.362;2023-09-12T10:10:07;22.60;99.90
51327;DHT22;37412;52.836;6.362;2023-09-12T10:12:56;22.60;99.90
51327;DHT22;37412;52.836;6.362;2023-09-12T10:15:43;22.60;99.90
51327;DHT22;37412;52.836;6.362;2023-09-12T10:18:34;22.50;99.90
51327;DHT22;37412;52.836;6.362;2023-09-12T10:21:27;22.40;99.90
51327;DHT22;37412;52.836;6.362;2023-09-12T10:24:14;22.40;99.90
51327;DHT22;37412;52.836;6.362;2023-09-12T10:27:02;22.40;99.90
51327;DHT22;37412;52.836;6.362;2023-09-12T10:29:48;22.40;99.90
51327;DHT22;37412;52.836;6.362;2023-09-12T10:32:36;22.40;99.90
51327;DHT22;37412;52.836;6.362;2023-09-12T10:35:22;22.30;99.90
51327;DHT22;37412;52.836;6.362;2023-09-12T10:38:08;22.30;99.90
51327;DHT22;37412;52.836;6.362;2023-09-12T10:40:54;22.30;99.90
51327;DHT22;37412;52.836;6.362;2023-09-12T10:43:44;22.30;99.90
51327;DHT22;37412;52.836;6.362;2023-09-12T10:46:32;22.30;99.90
51327;DHT22;37412;52.836;6.362;2023-09-12T10:49:18;22.50;99.90
51327;DHT22;37412;52.836;6.362;2023-09-12T10:52:05;22.70;99.90
51327;DHT22;37412;52.836;6.362;2023-09-12T10:54:51;22.80;99.90
51327;DHT22;37412;52.836;6.362;2023-09-12T10:58:00;22.90;99.90
51327;DHT22;37412;52.836;6.362;2023-09-12T11:01:22;23.00;99.90
51327;DHT22;37412;52.836;6.362;2023-09-12T11:07:31;23.20;99.90
51327;DHT22;37412;52.836;6.362;2023-09-12T11:10:19;23.20;99.90
51327;DHT22;37412;52.836;6.362;2023-09-12T11:13:05;23.10;99.90
51327;DHT22;37412;52.836;6.362;2023-09-12T11:16:09;23.10;99.90
51327;DHT22;37412;52.836;6.362;2023-09-12T11:22:04;23.20;99.90
51327;DHT22;37412;52.836;6.362;2023-09-12T11:25:15;23.30;99.90
51327;DHT22;37412;52.836;6.362;2023-09-12T11:28:03;23.30;99.90
51327;DHT22;37412;52.836;6.362;2023-09-12T11:30:56;23.30;99.90
51327;DHT22;37412;52.836;6.362;2023-09-12T11:33:44;23.20;99.90
51327;DHT22;37412;52.836;6.362;2023-09-12T11:36:37;23.00;99.90
51327;DHT22;37412;52.836;6.362;2023-09-12T11:39:24;23.10;99.90
51327;DHT22;37412;52.836;6.362;2023-09-12T11:42:12;23.10;99.90
51327;DHT22;37412;52.836;6.362;2023-09-12T11:44:59;23.00;99.90
51327;DHT22;37412;52.836;6.362;2023-09-12T11:47:45;23.10;99.90
51327;DHT22;37412;52.836;6.362;2023-09-12T11:53:19;23.00;99.90
51327;DHT22;37412;52.836;6.362;2023-09-12T11:56:05;23.10;99.90
51327;DHT22;37412;52.836;6.362;2023-09-12T11:58:52;23.20;99.90
51327;DHT22;37412;52.836;6.362;2023-09-12T12:01:38;23.20;99.90
51327;DHT22;37412;52.836;6.362;2023-09-12T12:04:24;23.30;99.90
51327;DHT22;37412;52.836;6.362;2023-09-12T12:07:11;23.50;99.90
51327;DHT22;37412;52.836;6.362;2023-09-12T12:09:57;23.50;99.90
51327;DHT22;37412;52.836;6.362;2023-09-12T12:12:46;23.50;99.90
51327;DHT22;37412;52.836;6.362;2023-09-12T12:15:32;23.50;99.90
51327;DHT22;37412;52.836;6.362;2023-09-12T12:18:18;23.40;99.90
51327;DHT22;37412;52.836;6.362;2023-09-12T12:21:04;23.30;99.90
51327;DHT22;37412;52.836;6.362;2023-09-12T12:23:59;23.30;99.90
51327;DHT22;37412;52.836;6.362;2023-09-12T12:26:45;23.20;99.90
51327;DHT22;37412;52.836;6.362;2023-09-12T12:29:31;23.20;99.90
51327;DHT22;37412;52.836;6.362;2023-09-12T12:32:18;23.00;99.90
51327;DHT22;37412;52.836;6.362;2023-09-12T12:35:06;23.10;99.90
51327;DHT22;37412;52.836;6.362;2023-09-12T12:37:54;23.00;99.90
51327;DHT22;37412;52.836;6.362;2023-09-12T12:40:41;22.90;99.90
51327;DHT22;37412;52.836;6.362;2023-09-12T12:43:27;22.90;99.90
51327;DHT22;37412;52.836;6.362;2023-09-12T12:46:13;22.90;99.90
51327;DHT22;37412;52.836;6.362;2023-09-12T12:48:59;22.80;99.90
51327;DHT22;37412;52.836;6.362;2023-09-12T12:51:45;22.90;99.90
51327;DHT22;37412;52.836;6.362;2023-09-12T12:54:31;23.00;99.90
51327;DHT22;37412;52.836;6.362;2023-09-12T12:57:19;23.00;99.90
51327;DHT22;37412;52.836;6.362;2023-09-12T13:00:14;23.00;99.90
51327;DHT22;37412;52.836;6.362;2023-09-12T13:03:00;23.10;99.90
51327;DHT22;37412;52.836;6.362;2023-09-12T13:05:46;23.20;99.90
51327;DHT22;37412;52.836;6.362;2023-09-12T13:08:32;23.30;99.90
51327;DHT22;37412;52.836;6.362;2023-09-12T13:11:20;23.60;99.90
51327;DHT22;37412;52.836;6.362;2023-09-12T13:14:07;23.90;99.90
51327;DHT22;37412;52.836;6.362;2023-09-12T13:16:57;24.10;99.90
51327;DHT22;37412;52.836;6.362;2023-09-12T13:19:43;24.40;99.90
51327;DHT22;37412;52.836;6.362;2023-09-12T13:22:29;24.60;99.90
51327;DHT22;37412;52.836;6.362;2023-09-12T13:25:15;24.70;99.90
51327;DHT22;37412;52.836;6.362;2023-09-12T13:28:01;24.80;99.90
51327;DHT22;37412;52.836;6.362;2023-09-12T13:30:47;24.90;99.90
51327;DHT22;37412;52.836;6.362;2023-09-12T13:33:33;25.00;99.90
51327;DHT22;37412;52.836;6.362;2023-09-12T13:36:19;24.90;99.90
51327;DHT22;37412;52.836;6.362;2023-09-12T13:39:05;24.90;99.90
51327;DHT22;37412;52.836;6.362;2023-09-12T13:41:52;24.70;99.90
51327;DHT22;37412;52.836;6.362;2023-09-12T13:44:38;24.50;99.90
51327;DHT22;37412;52.836;6.362;2023-09-12T13:47:23;24.70;99.90
51327;DHT22;37412;52.836;6.362;2023-09-12T13:50:11;24.90;99.90
51327;DHT22;37412;52.836;6.362;2023-09-12T13:52:57;25.00;99.90
51327;DHT22;37412;52.836;6.362;2023-09-12T13:55:48;25.20;99.90
51327;DHT22;37412;52.836;6.362;2023-09-12T13:58:34;25.30;99.90
51327;DHT22;37412;52.836;6.362;2023-09-12T14:01:20;25.30;99.90
51327;DHT22;37412;52.836;6.362;2023-09-12T14:04:06;25.20;99.90
51327;DHT22;37412;52.836;6.362;2023-09-12T14:06:52;25.10;99.90
51327;DHT22;37412;52.836;6.362;2023-09-12T14:09:38;24.80;99.90
51327;DHT22;37412;52.836;6.362;2023-09-12T14:12:24;24.80;99.90
51327;DHT22;37412;52.836;6.362;2023-09-12T14:15:11;24.90;99.90
51327;DHT22;37412;52.836;6.362;2023-09-12T14:17:57;24.80;99.90
51327;DHT22;37412;52.836;6.362;2023-09-12T14:20:43;24.80;99.90
51327;DHT22;37412;52.836;6.362;2023-09-12T14:23:29;24.80;99.90
51327;DHT22;37412;52.836;6.362;2023-09-12T14:26:15;24.80;99.90
51327;DHT22;37412;52.836;6.362;2023-09-12T14:29:01;24.90;99.90
51327;DHT22;37412;52.836;6.362;2023-09-12T14:31:47;24.90;99.90
51327;DHT22;37412;52.836;6.362;2023-09-12T14:34:38;24.80;99.90
51327;DHT22;37412;52.836;6.362;2023-09-12T14:37:24;24.50;99.90
51327;DHT22;37412;52.836;6.362;2023-09-12T14:40:13;24.50;99.90
51327;DHT22;37412;52.836;6.362;2023-09-12T14:43:02;24.50;99.90
51327;DHT22;37412;52.836;6.362;2023-09-12T14:45:48;24.50;99.90
51327;DHT22;37412;52.836;6.362;2023-09-12T14:48:34;24.70;99.90
51327;DHT22;37412;52.836;6.362;2023-09-12T14:51:21;24.70;99.90
51327;DHT22;37412;52.836;6.362;2023-09-12T14:54:07;24.70;99.90
51327;DHT22;37412;52.836;6.362;2023-09-12T14:56:53;24.80;99.90
51327;DHT22;37412;52.836;6.362;2023-09-12T14:59:39;25.00;99.90
51327;DHT22;37412;52.836;6.362;2023-09-12T15:02:25;25.10;99.90
51327;DHT22;37412;52.836;6.362;2023-09-12T15:05:16;25.30;99.90
51327;DHT22;37412;52.836;6.362;2023-09-12T15:08:02;25.20;99.90
51327;DHT22;37412;52.836;6.362;2023-09-12T15:10:48;25.30;99.90
51327;DHT22;37412;52.836;6.362;2023-09-12T15:13:34;25.10;99.90
51327;DHT22;37412;52.836;6.362;2023-09-12T15:16:20;25.00;99.90
51327;DHT22;37412;52.836;6.362;2023-09-12T15:19:06;24.90;99.90
51327;DHT22;37412;52.836;6.362;2023-09-12T15:21:52;24.70;99.90
51327;DHT22;37412;52.836;6.362;2023-09-12T15:24:37;24.50;99.90
51327;DHT22;37412;52.836;6.362;2023-09-12T15:27:23;24.40;99.90
51327;DHT22;37412;52.836;6.362;2023-09-12T15:30:09;24.20;99.90
51327;DHT22;37412;52.836;6.362;2023-09-12T15:32:55;24.20;99.90
51327;DHT22;37412;52.836;6.362;2023-09-12T15:35:41;24.10;99.90
51327;DHT22;37412;52.836;6.362;2023-09-12T15:38:27;24.10;99.90
51327;DHT22;37412;52.836;6.362;2023-09-12T15:41:13;23.90;99.90
51327;DHT22;37412;52.836;6.362;2023-09-12T15:43:59;23.90;99.90
51327;DHT22;37412;52.836;6.362;2023-09-12T15:46:45;23.80;99.90
51327;DHT22;37412;52.836;6.362;2023-09-12T15:49:31;23.60;99.90
51327;DHT22;37412;52.836;6.362;2023-09-12T15:52:17;23.50;99.90
51327;DHT22;37412;52.836;6.362;2023-09-12T15:55:04;23.40;99.90
51327;DHT22;37412;52.836;6.362;2023-09-12T15:57:50;23.30;99.90
51327;DHT22;37412;52.836;6.362;2023-09-12T16:00:35;23.10;99.90
51327;DHT22;37412;52.836;6.362;2023-09-12T16:03:21;23.10;99.90
51327;DHT22;37412;52.836;6.362;2023-09-12T16:06:07;22.90;99.90
51327;DHT22;37412;52.836;6.362;2023-09-12T16:08:53;22.80;99.90
51327;DHT22;37412;52.836;6.362;2023-09-12T16:11:39;22.80;99.90
51327;DHT22;37412;52.836;6.362;2023-09-12T16:14:25;22.80;99.90
51327;DHT22;37412;52.836;6.362;2023-09-12T16:17:10;22.70;99.90
51327;DHT22;37412;52.836;6.362;2023-09-12T16:19:56;22.80;99.90
51327;DHT22;37412;52.836;6.362;2023-09-12T16:22:43;22.60;99.90
51327;DHT22;37412;52.836;6.362;2023-09-12T16:25:29;22.60;99.90
51327;DHT22;37412;52.836;6.362;2023-09-12T16:28:15;22.50;99.90
51327;DHT22;37412;52.836;6.362;2023-09-12T16:31:00;22.40;99.90
51327;DHT22;37412;52.836;6.362;2023-09-12T16:33:46;22.40;99.90
51327;DHT22;37412;52.836;6.362;2023-09-12T16:36:33;22.40;99.90
51327;DHT22;37412;52.836;6.362;2023-09-12T16:39:19;22.40;99.90
51327;DHT22;37412;52.836;6.362;2023-09-12T16:42:05;22.30;99.90
51327;DHT22;37412;52.836;6.362;2023-09-12T16:44:51;22.30;99.90
51327;DHT22;37412;52.836;6.362;2023-09-12T16:47:37;22.30;99.90
51327;DHT22;37412;52.836;6.362;2023-09-12T16:50:26;22.30;99.90
51327;DHT22;37412;52.836;6.362;2023-09-12T16:53:12;22.20;99.90
51327;DHT22;37412;52.836;6.362;2023-09-12T16:55:58;22.20;99.90
51327;DHT22;37412;52.836;6.362;2023-09-12T16:58:45;22.10;99.90
51327;DHT22;37412;52.836;6.362;2023-09-12T17:01:30;22.10;99.90
51327;DHT22;37412;52.836;6.362;2023-09-12T17:04:18;22.00;99.90
51327;DHT22;37412;52.836;6.362;2023-09-12T17:07:04;22.00;99.90
51327;DHT22;37412;52.836;6.362;2023-09-12T17:09:49;22.00;99.90
51327;DHT22;37412;52.836;6.362;2023-09-12T17:12:35;22.00;99.90
51327;DHT22;37412;52.836;6.362;2023-09-12T17:15:21;22.00;99.90
51327;DHT22;37412;52.836;6.362;2023-09-12T17:18:07;21.90;99.90
51327;DHT22;37412;52.836;6.362;2023-09-12T17:20:53;21.90;99.90
51327;DHT22;37412;52.836;6.362;2023-09-12T17:23:39;21.80;99.90
51327;DHT22;37412;52.836;6.362;2023-09-12T17:26:25;21.80;99.90
51327;DHT22;37412;52.836;6.362;2023-09-12T17:29:11;21.70;99.90
51327;DHT22;37412;52.836;6.362;2023-09-12T17:32:00;21.70;99.90
51327;DHT22;37412;52.836;6.362;2023-09-12T17:34:53;21.60;99.90
51327;DHT22;37412;52.836;6.362;2023-09-12T17:37:41;21.60;99.90
51327;DHT22;37412;52.836;6.362;2023-09-12T17:40:28;21.60;99.90
51327;DHT22;37412;52.836;6.362;2023-09-12T17:43:14;21.50;99.90
51327;DHT22;37412;52.836;6.362;2023-09-12T17:46:00;21.50;99.90